Time;durP1;ratioP1;P1;durP2;ratioP2;P2;SDS_P1;SDS_P2;PMS_P1;PMS_P2;Temp;Humidity;BMP_temperature;BMP_pressure;BME280_temperature;BME280_humidity;BME280_pressure;Samples;Min_cycle;Max_cycle;Signal;HPM_P1;HPM_P2
2023/04/09 00:00:43;;;;;;;20.60;9.07;;;;;;;4.84;93.76;102176.75;5073476;28;20480;-65
2023/04/09 00:03:10;;;;;;;20.90;8.97;;;;;;;4.73;93.34;102172.09;5075462;28;20485;-66
2023/04/09 00:05:39;;;;;;;20.27;9.03;;;;;;;4.60;94.44;102165.00;5072754;28;20978;-66
2023/04/09 00:08:06;;;;;;;19.23;8.57;;;;;;;4.57;94.89;102170.84;5068839;28;20551;-66
2023/04/09 00:10:33;;;;;;;19.20;9.80;;;;;;;4.72;93.58;102165.09;5070180;28;20477;-66
2023/04/09 00:13:01;;;;;;;19.23;9.50;;;;;;;4.75;92.82;102170.03;5088601;28;20488;-66
2023/04/09 00:15:27;;;;;;;20.67;10.90;;;;;;;4.69;92.53;102169.06;5074780;28;20545;-66
2023/04/09 00:17:55;;;;;;;19.20;9.43;;;;;;;4.42;94.09;102164.97;5080577;28;20458;-66
2023/04/09 00:20:21;;;;;;;27.43;10.40;;;;;;;4.30;94.66;102159.53;5073251;28;20572;-66
2023/04/09 00:22:49;;;;;;;23.03;10.37;;;;;;;4.20;94.92;102154.66;5080202;28;20580;-66
2023/04/09 00:25:15;;;;;;;20.17;9.37;;;;;;;4.13;94.96;102155.75;5094220;28;20432;-67
2023/04/09 00:27:42;;;;;;;27.23;11.03;;;;;;;4.08;94.61;102159.09;5076534;28;20469;-65
2023/04/09 00:30:11;;;;;;;22.50;10.90;;;;;;;4.21;94.85;102160.84;5074111;28;20865;-66
2023/04/09 00:32:37;;;;;;;23.43;9.87;;;;;;;4.13;96.19;102156.59;5073375;28;20472;-66
2023/04/09 00:35:05;;;;;;;22.00;9.53;;;;;;;4.05;97.38;102162.22;5073380;28;20464;-66
2023/04/09 00:37:31;;;;;;;21.27;8.83;;;;;;;4.14;96.98;102155.53;5073503;28;20457;-66
2023/04/09 00:39:58;;;;;;;21.37;9.33;;;;;;;3.96;98.49;102158.16;5088663;28;21052;-66
2023/04/09 00:42:25;;;;;;;21.33;9.30;;;;;;;3.93;98.15;102158.59;5079806;28;20463;-66
2023/04/09 00:44:52;;;;;;;17.93;8.53;;;;;;;3.94;97.85;102157.53;5081823;28;20484;-66
2023/04/09 00:47:20;;;;;;;25.37;8.90;;;;;;;3.86;99.01;102155.16;5074051;28;20540;-66
2023/04/09 00:49:46;;;;;;;21.17;9.70;;;;;;;3.85;98.91;102153.50;5072730;28;20519;-66
2023/04/09 00:52:13;;;;;;;15.10;7.93;;;;;;;3.98;97.91;102162.25;5071140;28;21042;-66
2023/04/09 00:54:40;;;;;;;17.63;8.23;;;;;;;3.90;98.27;102153.69;5080470;28;20463;-67
2023/04/09 00:57:06;;;;;;;22.47;9.70;;;;;;;3.88;98.40;102156.56;5080142;28;20472;-66
2023/04/09 00:59:33;;;;;;;24.73;10.43;;;;;;;3.83;98.41;102159.06;5083166;28;20580;-66
2023/04/09 01:02:00;;;;;;;24.07;10.57;;;;;;;3.71;99.43;102158.94;5077595;28;20977;-66
2023/04/09 01:04:28;;;;;;;24.07;10.40;;;;;;;3.57;100.00;102153.88;5072126;28;21014;-66
2023/04/09 01:07:04;;;;;;;20.47;9.57;;;;;;;3.62;99.75;102152.19;5076780;28;20839;-66
2023/04/09 01:09:35;;;;;;;23.10;10.47;;;;;;;3.57;100.00;102146.66;5074740;28;20484;-66
2023/04/09 01:12:11;;;;;;;24.80;9.03;;;;;;;3.64;98.89;102152.00;5078954;28;20457;-66
2023/04/09 01:14:45;;;;;;;21.60;9.27;;;;;;;3.47;96.83;102157.84;5081235;28;20463;-64
2023/04/09 01:17:17;;;;;;;21.47;9.43;;;;;;;3.54;97.30;102160.47;5078467;28;20449;-65
2023/04/09 01:19:54;;;;;;;24.90;9.30;;;;;;;3.44;97.09;102157.47;5055800;28;20564;-66
2023/04/09 01:22:46;;;;;;;28.80;9.53;;;;;;;3.37;96.00;102162.03;5063846;28;20454;-65
2023/04/09 01:25:26;;;;;;;24.37;9.77;;;;;;;3.43;95.13;102158.50;5055641;28;20469;-66
2023/04/09 01:28:12;;;;;;;19.70;9.07;;;;;;;3.11;96.14;102157.63;5064869;28;20831;-66
2023/04/09 01:30:40;;;;;;;23.70;8.80;;;;;;;3.07;96.55;102153.72;5081115;28;20575;-66
2023/04/09 01:33:07;;;;;;;20.00;7.90;;;;;;;3.13;96.67;102152.88;5071387;28;20544;-66
2023/04/09 01:35:34;;;;;;;23.10;8.77;;;;;;;3.07;96.38;102148.38;5088159;28;20461;-66
2023/04/09 01:38:02;;;;;;;24.97;9.90;;;;;;;3.00;96.86;102149.22;5078916;28;20556;-66
2023/04/09 01:40:29;;;;;;;20.53;8.70;;;;;;;2.97;96.84;102154.19;5074871;28;20484;-66
2023/04/09 01:42:58;;;;;;;22.17;10.53;;;;;;;2.96;96.47;102163.22;5082581;28;20495;-66
2023/04/09 01:45:26;;;;;;;22.93;9.70;;;;;;;2.92;95.75;102162.00;5074548;28;20474;-66
2023/04/09 01:47:55;;;;;;;17.57;8.87;;;;;;;2.92;95.44;102160.16;5071332;28;20461;-66
2023/04/09 01:50:22;;;;;;;24.67;10.77;;;;;;;2.82;95.67;102167.81;5083356;28;20481;-66
2023/04/09 01:52:49;;;;;;;21.83;9.07;;;;;;;2.81;96.00;102168.84;5071030;28;20465;-66
2023/04/09 01:55:15;;;;;;;28.47;9.70;;;;;;;2.71;98.75;102166.59;5071429;28;20453;-66
2023/04/09 01:57:42;;;;;;;20.77;9.43;;;;;;;2.66;100.00;102169.09;5079401;28;20471;-67
2023/04/09 02:00:11;;;;;;;19.87;9.80;;;;;;;2.83;98.96;102166.75;5070660;28;20577;-67
2023/04/09 02:02:46;;;;;;;24.20;9.10;;;;;;;2.76;98.41;102174.00;5077581;28;20456;-68
2023/04/09 02:05:17;;;;;;;26.90;10.37;;;;;;;2.73;98.19;102175.22;5089235;28;20464;-67
2023/04/09 02:07:47;;;;;;;25.43;10.10;;;;;;;2.62;98.35;102180.41;5071506;28;20480;-67
2023/04/09 02:10:16;;;;;;;23.27;10.83;;;;;;;2.52;98.63;102175.47;5072299;28;20465;-67
2023/04/09 02:12:47;;;;;;;27.90;9.00;;;;;;;2.48;98.45;102169.75;5079244;28;20801;-67
2023/04/09 02:15:15;;;;;;;21.83;9.80;;;;;;;2.56;98.48;102174.03;5078319;28;20966;-66
2023/04/09 02:17:43;;;;;;;22.90;9.93;;;;;;;2.69;98.64;102178.53;5071900;28;20550;-67
2023/04/09 02:20:10;;;;;;;22.17;9.20;;;;;;;2.73;98.71;102179.75;5073579;28;21019;-65
2023/04/09 02:22:38;;;;;;;23.30;9.97;;;;;;;2.55;100.00;102180.41;5085074;28;22082;-67
2023/04/09 02:25:06;;;;;;;24.60;11.00;;;;;;;2.61;100.00;102176.06;5079269;28;20492;-67
2023/04/09 02:27:32;;;;;;;24.43;10.70;;;;;;;2.60;99.43;102174.44;5088759;28;20464;-65
2023/04/09 02:29:59;;;;;;;21.60;9.53;;;;;;;2.69;99.45;102178.53;5087772;28;20507;-67
2023/04/09 02:32:25;;;;;;;19.87;9.03;;;;;;;2.72;98.62;102181.63;5080762;28;20457;-67
2023/04/09 02:34:53;;;;;;;22.10;10.37;;;;;;;2.51;99.49;102181.84;5084122;28;20949;-67
2023/04/09 02:37:20;;;;;;;26.03;11.10;;;;;;;2.44;99.89;102183.72;5074964;28;20514;-67
2023/04/09 02:39:46;;;;;;;28.67;12.13;;;;;;;2.49;99.09;102181.25;5077812;28;20480;-67
2023/04/09 02:42:13;;;;;;;25.83;11.60;;;;;;;2.33;99.59;102185.16;5087125;28;20827;-67
2023/04/09 02:44:40;;;;;;;21.40;9.90;;;;;;;2.22;100.00;102177.78;5074037;28;20488;-67
2023/04/09 02:47:06;;;;;;;26.33;11.33;;;;;;;2.25;100.00;102175.50;5073579;28;20548;-67
2023/04/09 02:49:33;;;;;;;26.73;10.60;;;;;;;2.35;99.63;102174.28;5074049;28;20497;-67
2023/04/09 02:52:01;;;;;;;26.23;11.60;;;;;;;2.32;99.05;102174.69;5075538;28;20524;-67
2023/04/09 02:54:27;;;;;;;26.50;12.20;;;;;;;2.39;97.65;102180.81;5079789;28;20535;-66
2023/04/09 02:56:55;;;;;;;28.17;12.93;;;;;;;2.43;97.82;102179.38;5076423;28;20492;-67
2023/04/09 02:59:21;;;;;;;23.07;12.20;;;;;;;2.49;97.92;102181.25;5076423;28;22088;-67
2023/04/09 03:01:48;;;;;;;34.63;13.70;;;;;;;2.51;98.70;102173.84;5075963;28;20553;-66
2023/04/09 03:04:14;;;;;;;29.10;13.40;;;;;;;2.51;99.53;102171.97;5084778;28;20476;-66
2023/04/09 03:06:41;;;;;;;35.23;13.90;;;;;;;2.43;100.00;102177.53;5073096;28;20465;-66
2023/04/09 03:09:09;;;;;;;25.90;13.57;;;;;;;2.46;100.00;102173.63;5082558;28;20887;-66
2023/04/09 03:11:35;;;;;;;34.00;13.77;;;;;;;2.48;100.00;102171.59;5074559;28;20994;-66
2023/04/09 03:14:02;;;;;;;31.40;11.90;;;;;;;2.52;100.00;102173.63;5089633;28;20463;-66
2023/04/09 03:16:29;;;;;;;27.87;12.67;;;;;;;2.58;100.00;102174.66;5080951;28;20492;-67
2023/04/09 03:18:55;;;;;;;34.20;13.83;;;;;;;2.63;100.00;102179.38;5074142;28;20467;-66
2023/04/09 03:21:22;;;;;;;36.70;16.13;;;;;;;2.60;100.00;102185.94;5090682;28;20489;-66
2023/04/09 03:23:48;;;;;;;30.90;14.00;;;;;;;2.67;100.00;102173.41;5088706;28;21001;-67
2023/04/09 03:26:16;;;;;;;31.70;13.17;;;;;;;2.62;100.00;102177.75;5069192;28;20446;-67
2023/04/09 03:28:43;;;;;;;36.50;14.53;;;;;;;2.63;100.00;102174.84;5073666;28;20464;-67
2023/04/09 03:31:09;;;;;;;33.63;14.60;;;;;;;2.64;100.00;102170.31;5074589;28;20564;-67
2023/04/09 03:33:36;;;;;;;26.40;12.63;;;;;;;2.80;100.00;102164.53;5080152;28;20458;-66
2023/04/09 03:36:02;;;;;;;34.33;14.17;;;;;;;2.77;100.00;102164.94;5079129;28;20465;-66
2023/04/09 03:38:29;;;;;;;25.23;12.33;;;;;;;2.77;100.00;102165.75;5074294;28;20974;-66
2023/04/09 03:40:56;;;;;;;29.97;13.00;;;;;;;2.86;100.00;102162.84;5077435;28;20568;-66
2023/04/09 03:43:24;;;;;;;26.47;12.47;;;;;;;3.03;100.00;102159.50;5093998;28;20527;-66
2023/04/09 03:45:51;;;;;;;18.87;10.67;;;;;;;3.05;100.00;102164.63;5078912;28;20538;-66
2023/04/09 03:48:17;;;;;;;29.87;12.63;;;;;;;3.13;100.00;102164.41;5073822;28;20911;-66
2023/04/09 03:50:44;;;;;;;26.90;11.30;;;;;;;3.15;100.00;102166.88;5073801;28;20521;-66
2023/04/09 03:53:10;;;;;;;22.87;11.10;;;;;;;3.36;100.00;102161.19;5088658;28;20474;-65
2023/04/09 03:55:37;;;;;;;23.83;10.70;;;;;;;3.38;100.00;102163.69;5076297;28;20954;-65
2023/04/09 03:58:04;;;;;;;24.40;10.50;;;;;;;3.43;100.00;102161.19;5092978;28;20451;-65
2023/04/09 04:00:32;;;;;;;24.47;10.90;;;;;;;3.59;100.00;102166.03;5073903;28;22406;-66
2023/04/09 04:02:58;;;;;;;35.20;11.90;;;;;;;3.72;100.00;102165.16;5095135;28;20519;-66
2023/04/09 04:05:25;;;;;;;26.90;11.63;;;;;;;3.76;100.00;102161.81;5078089;28;20485;-65
2023/04/09 04:07:52;;;;;;;29.60;10.37;;;;;;;3.78;100.00;102157.03;5076485;28;20461;-66
2023/04/09 04:10:19;;;;;;;24.47;11.60;;;;;;;3.89;100.00;102165.41;5076733;28;20586;-67
2023/04/09 04:12:46;;;;;;;29.03;10.87;;;;;;;3.91;100.00;102158.00;5083422;28;20456;-66
2023/04/09 04:15:12;;;;;;;23.30;9.97;;;;;;;3.88;100.00;102158.41;5072838;28;21039;-66
2023/04/09 04:17:40;;;;;;;26.13;10.57;;;;;;;3.91;100.00;102168.72;5074636;28;20496;-66
2023/04/09 04:20:08;;;;;;;20.27;8.60;;;;;;;3.91;100.00;102166.84;5084756;28;20483;-67
2023/04/09 04:22:35;;;;;;;22.00;8.93;;;;;;;3.99;100.00;102168.47;5081950;28;20548;-67
2023/04/09 04:25:02;;;;;;;19.50;9.23;;;;;;;3.97;100.00;102170.50;5075528;28;20500;-69
2023/04/09 04:27:28;;;;;;;29.70;9.93;;;;;;;3.91;100.00;102161.50;5081502;28;20496;-66
2023/04/09 04:29:57;;;;;;;23.43;10.70;;;;;;;3.98;100.00;102172.97;5074450;28;20473;-66
2023/04/09 04:32:23;;;;;;;23.30;9.27;;;;;;;4.04;100.00;102171.31;5073338;28;20989;-66
2023/04/09 04:34:51;;;;;;;32.10;11.60;;;;;;;4.04;100.00;102177.47;5083113;28;20457;-66
2023/04/09 04:37:18;;;;;;;24.97;10.73;;;;;;;4.08;100.00;102185.09;5074120;28;20461;-66
2023/04/09 04:39:44;;;;;;;22.10;9.60;;;;;;;4.13;100.00;102180.72;5072884;28;20477;-65
2023/04/09 04:42:11;;;;;;;19.40;8.43;;;;;;;4.28;100.00;102173.16;5078047;28;20953;-65
2023/04/09 04:44:38;;;;;;;24.43;9.70;;;;;;;4.32;100.00;102181.59;5088169;28;20939;-65
2023/04/09 04:47:04;;;;;;;24.40;9.67;;;;;;;4.27;100.00;102181.44;5073409;28;20457;-65
2023/04/09 04:49:31;;;;;;;24.27;9.07;;;;;;;4.27;100.00;102181.44;5063052;28;20568;-66
2023/04/09 04:51:59;;;;;;;26.83;10.27;;;;;;;4.33;100.00;102180.53;5071408;28;20464;-65
2023/04/09 04:54:26;;;;;;;15.67;7.90;;;;;;;4.34;100.00;102168.78;5073021;28;20479;-65
2023/04/09 04:56:52;;;;;;;14.67;7.27;;;;;;;4.44;100.00;102181.69;5074477;28;20469;-65
2023/04/09 04:59:19;;;;;;;19.30;8.90;;;;;;;4.39;100.00;102186.91;5086509;28;20561;-65
2023/04/09 05:01:45;;;;;;;23.90;9.57;;;;;;;4.42;100.00;102189.13;5072830;28;20461;-65
2023/04/09 05:04:12;;;;;;;19.90;9.33;;;;;;;4.53;100.00;102191.09;5083865;28;20456;-65
2023/04/09 05:06:38;;;;;;;24.67;10.33;;;;;;;4.53;100.00;102193.78;5075428;28;20453;-65
2023/04/09 05:09:06;;;;;;;20.43;8.97;;;;;;;4.52;100.00;102192.16;5082664;28;20551;-65
2023/04/09 05:11:33;;;;;;;20.40;8.20;;;;;;;4.48;100.00;102190.94;5084097;28;20504;-65
2023/04/09 05:14:00;;;;;;;19.00;8.00;;;;;;;4.43;100.00;102185.44;5074162;28;20461;-65
2023/04/09 05:16:26;;;;;;;21.20;9.83;;;;;;;4.55;100.00;102180.94;5075295;28;20480;-65
2023/04/09 05:18:53;;;;;;;19.83;9.20;;;;;;;4.64;100.00;102184.19;5080697;28;20467;-65
2023/04/09 05:21:20;;;;;;;21.73;9.47;;;;;;;4.67;100.00;102189.09;5079332;28;20483;-65
2023/04/09 05:23:46;;;;;;;24.63;9.90;;;;;;;4.72;100.00;102187.38;5087726;28;20473;-65
2023/04/09 05:26:14;;;;;;;24.27;9.90;;;;;;;4.75;100.00;102183.44;5077696;28;21080;-65
2023/04/09 05:28:41;;;;;;;20.37;9.13;;;;;;;4.76;100.00;102185.09;5086960;28;20460;-65
2023/04/09 05:31:11;;;;;;;26.37;9.90;;;;;;;4.89;100.00;102189.50;5081572;28;20480;-68
2023/04/09 05:33:38;;;;;;;28.33;10.00;;;;;;;4.96;100.00;102184.88;5088319;28;20499;-67
2023/04/09 05:36:05;;;;;;;21.90;9.43;;;;;;;4.97;100.00;102191.91;5075566;28;20958;-65
2023/04/09 05:38:32;;;;;;;25.50;9.00;;;;;;;5.09;100.00;102191.94;5087554;28;20540;-67
2023/04/09 05:40:58;;;;;;;20.07;8.60;;;;;;;5.15;100.00;102191.88;5085207;28;21112;-67
2023/04/09 05:43:26;;;;;;;28.27;10.57;;;;;;;5.21;100.00;102204.41;5075066;28;20484;-67
2023/04/09 05:45:53;;;;;;;25.77;10.93;;;;;;;5.28;100.00;102199.78;5075902;28;20583;-66
2023/04/09 05:48:19;;;;;;;19.17;10.00;;;;;;;5.29;100.00;102200.59;5075834;28;20549;-67
2023/04/09 05:50:51;;;;;;;24.47;11.47;;;;;;;5.40;100.00;102209.75;5081454;28;20564;-67
2023/04/09 05:53:17;;;;;;;21.87;8.70;;;;;;;5.49;100.00;102211.09;5082613;28;20453;-70
2023/04/09 05:55:44;;;;;;;21.17;10.30;;;;;;;5.55;100.00;102213.69;5083386;28;20457;-68
2023/04/09 05:58:11;;;;;;;20.20;9.37;;;;;;;5.54;100.00;102222.00;5084516;28;20456;-66
2023/04/09 06:00:39;;;;;;;18.10;9.43;;;;;;;5.59;100.00;102205.19;5084801;28;20854;-67
2023/04/09 06:03:05;;;;;;;22.80;10.03;;;;;;;5.64;100.00;102214.19;5072460;28;20469;-66
2023/04/09 06:05:32;;;;;;;29.20;10.83;;;;;;;5.72;100.00;102210.38;5073928;28;20835;-66
2023/04/09 06:07:58;;;;;;;30.63;10.70;;;;;;;5.82;100.00;102208.78;5069766;28;20514;-66
2023/04/09 06:10:25;;;;;;;22.60;10.70;;;;;;;5.87;100.00;102218.84;5072346;28;20564;-66
2023/04/09 06:12:51;;;;;;;27.50;10.50;;;;;;;5.88;100.00;102219.66;5071154;28;20899;-66
2023/04/09 06:15:18;;;;;;;34.20;12.20;;;;;;;5.90;100.00;102217.56;5071842;28;20485;-66
2023/04/09 06:17:46;;;;;;;35.37;13.87;;;;;;;6.10;100.00;102218.09;5078197;28;20461;-66
2023/04/09 06:20:13;;;;;;;29.40;12.30;;;;;;;6.11;100.00;102222.47;5089475;28;20564;-65
2023/04/09 06:22:39;;;;;;;34.17;11.67;;;;;;;6.21;100.00;102224.59;5081786;28;20467;-66
2023/04/09 06:25:07;;;;;;;23.87;10.47;;;;;;;6.24;100.00;102224.09;5072187;28;20580;-66
2023/04/09 06:27:33;;;;;;;21.70;10.13;;;;;;;6.36;100.00;102224.13;5070810;28;20467;-66
2023/04/09 06:30:00;;;;;;;26.27;9.70;;;;;;;6.34;100.00;102223.56;5071048;28;20480;-66
2023/04/09 06:32:26;;;;;;;24.03;10.30;;;;;;;6.41;100.00;102225.06;5073262;28;20463;-66
2023/04/09 06:34:54;;;;;;;31.50;13.00;;;;;;;6.43;100.00;102228.34;5086693;28;20459;-66
2023/04/09 06:37:21;;;;;;;34.13;12.67;;;;;;;6.52;100.00;102221.56;5087609;28;20835;-66
2023/04/09 06:39:48;;;;;;;24.87;11.67;;;;;;;6.62;100.00;102223.69;5073232;28;20475;-67
2023/04/09 06:42:14;;;;;;;25.70;11.83;;;;;;;6.71;100.00;102222.28;5069022;28;20475;-66
2023/04/09 06:44:41;;;;;;;26.80;12.20;;;;;;;6.70;100.00;102227.91;5071972;28;20461;-67
2023/04/09 06:47:08;;;;;;;36.77;13.27;;;;;;;6.58;100.00;102225.19;5071060;28;20480;-66
2023/04/09 06:49:34;;;;;;;28.10;10.53;;;;;;;6.65;100.00;102225.09;5070417;28;20485;-66
2023/04/09 06:52:02;;;;;;;25.37;11.50;;;;;;;6.61;100.00;102230.13;5071909;28;20528;-66
2023/04/09 06:54:29;;;;;;;28.67;11.97;;;;;;;6.67;100.00;102231.06;5072122;28;20556;-66
2023/04/09 06:56:55;;;;;;;27.60;10.60;;;;;;;6.72;100.00;102231.16;5071614;28;20552;-70
2023/04/09 06:59:22;;;;;;;34.40;12.10;;;;;;;6.60;100.00;102233.03;5079430;28;20480;-69
2023/04/09 07:01:49;;;;;;;23.30;11.17;;;;;;;6.58;100.00;102235.97;5069009;28;20460;-67
2023/04/09 07:04:15;;;;;;;39.07;13.77;;;;;;;6.72;100.00;102229.28;5072212;28;20822;-67
2023/04/09 07:06:42;;;;;;;25.37;10.70;;;;;;;6.83;100.00;102230.34;5083756;28;22328;-67
2023/04/09 07:09:10;;;;;;;29.83;12.23;;;;;;;6.87;100.00;102231.53;5083398;28;22149;-67
2023/04/09 07:11:36;;;;;;;31.60;13.23;;;;;;;6.94;100.00;102237.59;5088280;28;20479;-67
2023/04/09 07:14:03;;;;;;;30.70;13.43;;;;;;;6.88;100.00;102240.44;5073306;28;20470;-66
2023/04/09 07:16:30;;;;;;;34.87;13.27;;;;;;;6.88;100.00;102240.44;5074986;28;20654;-65
2023/04/09 07:18:56;;;;;;;31.00;12.40;;;;;;;6.95;100.00;102246.50;5070202;28;20461;-66
2023/04/09 07:21:23;;;;;;;33.13;15.50;;;;;;;7.10;100.00;102246.84;5075368;28;20457;-66
2023/04/09 07:23:49;;;;;;;38.07;13.10;;;;;;;7.21;100.00;102253.25;5075879;28;20457;-66
2023/04/09 07:26:17;;;;;;;39.50;13.67;;;;;;;7.20;100.00;102249.75;5070334;28;20489;-66
2023/04/09 07:28:44;;;;;;;34.03;11.73;;;;;;;6.90;100.00;102249.06;5075174;28;20536;-66
2023/04/09 07:31:11;;;;;;;33.73;12.30;;;;;;;6.96;100.00;102245.47;5071476;28;20582;-66
2023/04/09 07:33:38;;;;;;;27.60;11.77;;;;;;;7.15;100.00;102254.22;5080302;28;20833;-66
2023/04/09 07:36:05;;;;;;;29.93;14.17;;;;;;;7.22;100.00;102258.44;5074708;28;20454;-66
2023/04/09 07:38:32;;;;;;;30.00;12.73;;;;;;;7.24;100.00;102248.22;5060790;28;20946;-66
2023/04/09 07:40:58;;;;;;;31.80;13.50;;;;;;;7.26;100.00;102254.22;5084368;28;20476;-66
2023/04/09 07:43:26;;;;;;;27.60;12.30;;;;;;;7.13;100.00;102254.47;5082922;28;21012;-66
2023/04/09 07:45:53;;;;;;;21.73;11.90;;;;;;;7.29;100.00;102256.41;5072824;28;20476;-66
2023/04/09 07:48:20;;;;;;;28.03;11.90;;;;;;;7.40;100.00;102259.34;5064856;28;20463;-66
2023/04/09 07:50:47;;;;;;;26.60;11.27;;;;;;;7.44;100.00;102255.09;5070404;28;20832;-66
2023/04/09 07:53:13;;;;;;;34.47;13.33;;;;;;;7.50;100.00;102259.53;5074828;28;20962;-66
2023/04/09 07:55:40;;;;;;;31.40;13.57;;;;;;;7.54;100.00;102260.69;5073649;28;20568;-67
2023/04/09 07:58:06;;;;;;;31.60;13.13;;;;;;;7.49;100.00;102264.13;5070183;28;20463;-66
2023/04/09 08:00:34;;;;;;;27.40;14.23;;;;;;;7.51;100.00;102261.97;5071218;28;20488;-66
2023/04/09 08:03:02;;;;;;;31.20;13.03;;;;;;;7.30;100.00;102274.25;5071161;28;20563;-68
2023/04/09 08:05:29;;;;;;;27.80;13.50;;;;;;;7.22;100.00;102263.81;5073825;28;20499;-67
2023/04/09 08:07:56;;;;;;;28.83;12.07;;;;;;;7.38;100.00;102266.81;5085270;28;20481;-67
2023/04/09 08:10:22;;;;;;;33.40;12.60;;;;;;;7.54;100.00;102260.69;5074406;28;20488;-67
2023/04/09 08:12:50;;;;;;;37.10;14.30;;;;;;;7.62;99.98;102263.03;5072386;28;20552;-68
2023/04/09 08:15:16;;;;;;;32.07;11.40;;;;;;;7.72;100.00;102265.91;5070091;28;20456;-67
2023/04/09 08:17:44;;;;;;;32.80;12.47;;;;;;;7.78;99.90;102269.50;5063435;28;20993;-67
2023/04/09 08:20:12;;;;;;;27.40;14.27;;;;;;;7.88;99.76;102268.88;5063917;28;21014;-67
2023/04/09 08:22:39;;;;;;;28.17;11.93;;;;;;;7.97;98.84;102262.03;5068121;28;20468;-67
2023/04/09 08:25:07;;;;;;;29.50;13.10;;;;;;;8.03;97.93;102271.88;5062709;28;20447;-67
2023/04/09 08:27:34;;;;;;;27.33;12.37;;;;;;;8.00;98.14;102265.06;5068861;28;20994;-66
2023/04/09 08:30:02;;;;;;;29.47;12.90;;;;;;;8.04;96.67;102270.81;5062489;28;20522;-67
2023/04/09 08:32:29;;;;;;;35.93;14.13;;;;;;;8.03;96.60;102274.56;5070215;28;20851;-67
2023/04/09 08:34:57;;;;;;;31.53;12.70;;;;;;;8.11;97.24;102276.88;5071237;28;20970;-68
2023/04/09 08:37:23;;;;;;;30.33;12.37;;;;;;;8.17;97.37;102270.50;5066074;28;20551;-67
2023/04/09 08:39:50;;;;;;;26.97;12.40;;;;;;;8.11;96.60;102274.19;5069159;28;20481;-67
2023/04/09 08:42:18;;;;;;;30.97;13.10;;;;;;;8.16;96.85;102274.28;5072238;28;20461;-67
2023/04/09 08:44:45;;;;;;;31.53;13.40;;;;;;;8.06;96.92;102280.31;5076780;28;20553;-67
2023/04/09 08:47:12;;;;;;;30.03;14.17;;;;;;;8.04;97.33;102287.00;5072649;28;20495;-68
2023/04/09 08:49:40;;;;;;;35.60;12.57;;;;;;;8.11;97.61;102278.78;5074375;28;20565;-67
2023/04/09 08:52:08;;;;;;;26.73;12.57;;;;;;;8.20;96.83;102286.22;5087678;28;20874;-67
2023/04/09 08:54:34;;;;;;;32.97;12.57;;;;;;;8.23;97.16;102276.81;5077270;28;20954;-67
2023/04/09 08:57:05;;;;;;;32.50;13.03;;;;;;;8.39;96.69;102278.75;5073130;28;20958;-67
2023/04/09 08:59:35;;;;;;;31.93;13.00;;;;;;;8.45;95.52;102287.75;5072592;28;20497;-67
2023/04/09 09:02:09;;;;;;;29.90;13.90;;;;;;;8.46;95.13;102278.59;5067764;28;20979;-67
2023/04/09 09:04:46;;;;;;;29.33;12.90;;;;;;;8.49;94.73;102278.09;5079066;28;20466;-66
2023/04/09 09:07:15;;;;;;;33.97;13.77;;;;;;;8.46;94.61;102275.91;5071195;28;20495;-67
2023/04/09 09:09:52;;;;;;;26.60;11.90;;;;;;;8.37;95.99;102271.94;5054002;28;20462;-67
2023/04/09 09:12:31;;;;;;;27.57;12.93;;;;;;;8.52;95.42;102264.13;5068106;28;20453;-67
2023/04/09 09:14:58;;;;;;;30.73;13.20;;;;;;;8.44;96.05;102272.63;5070252;28;20446;-67
2023/04/09 09:17:25;;;;;;;35.07;13.13;;;;;;;8.55;95.96;102277.94;5071014;28;20989;-67
2023/04/09 09:19:51;;;;;;;39.33;14.10;;;;;;;8.72;94.57;102267.16;5084800;28;20484;-67
2023/04/09 09:22:19;;;;;;;29.33;14.67;;;;;;;8.86;93.52;102272.22;5082109;28;20461;-67
2023/04/09 09:24:47;;;;;;;35.60;15.47;;;;;;;8.92;92.72;102276.59;5072438;28;20961;-67
2023/04/09 09:27:31;;;;;;;30.57;13.23;;;;;;;8.90;91.77;102271.47;5071300;28;20540;-67
2023/04/09 09:29:57;;;;;;;27.70;13.07;;;;;;;8.92;91.85;102271.19;5074266;28;20468;-68
2023/04/09 09:32:24;;;;;;;30.23;12.60;;;;;;;8.97;92.49;102271.28;5073215;28;20463;-67
2023/04/09 09:34:58;;;;;;;31.63;13.70;;;;;;;8.83;92.77;102268.09;5070559;28;20489;-67
2023/04/09 09:37:29;;;;;;;27.60;12.23;;;;;;;9.03;92.40;102263.00;5074769;28;20450;-67
2023/04/09 09:39:56;;;;;;;27.63;12.60;;;;;;;9.15;92.08;102262.88;5072314;28;20513;-68
2023/04/09 09:42:23;;;;;;;30.83;12.60;;;;;;;9.31;91.52;102263.91;5086412;28;20926;-68
2023/04/09 09:44:50;;;;;;;29.87;12.00;;;;;;;9.40;90.59;102267.00;5071020;28;20465;-67
2023/04/09 09:47:18;;;;;;;27.20;12.60;;;;;;;9.46;90.46;102265.97;5079885;28;20598;-68
2023/04/09 09:49:45;;;;;;;30.57;12.70;;;;;;;9.50;89.00;102270.63;5081506;28;20492;-67
2023/04/09 09:52:12;;;;;;;28.10;11.90;;;;;;;9.44;89.15;102268.13;5093228;28;20448;-67
2023/04/09 09:54:42;;;;;;;32.57;13.83;;;;;;;9.49;88.17;102268.19;5088904;28;20505;-67
2023/04/09 09:57:12;;;;;;;22.50;11.17;;;;;;;9.56;88.68;102261.53;5071745;28;20453;-67
2023/04/09 09:59:43;;;;;;;26.70;12.80;;;;;;;9.64;88.68;102259.41;5069235;28;20492;-68
2023/04/09 10:02:18;;;;;;;24.10;12.23;;;;;;;9.83;88.57;102258.03;5075286;28;20536;-67
2023/04/09 10:04:45;;;;;;;30.90;11.80;;;;;;;9.87;86.83;102256.41;5084709;28;21012;-67
2023/04/09 10:07:14;;;;;;;27.73;12.00;;;;;;;9.81;86.18;102258.25;5072269;28;20485;-67
2023/04/09 10:09:48;;;;;;;27.93;11.70;;;;;;;9.57;87.52;102265.84;5067561;28;20871;-67
2023/04/09 10:12:14;;;;;;;28.00;12.37;;;;;;;9.60;88.22;102259.09;5069811;28;20462;-67
2023/04/09 10:14:42;;;;;;;28.07;12.17;;;;;;;9.77;87.64;102261.72;5070850;28;20483;-67
2023/04/09 10:17:09;;;;;;;29.60;12.60;;;;;;;9.69;86.92;102265.69;5071110;28;20449;-67
2023/04/09 10:19:39;;;;;;;31.90;13.00;;;;;;;9.72;87.60;102254.38;5074588;28;21074;-67
2023/04/09 10:22:10;;;;;;;33.50;14.50;;;;;;;9.94;86.48;102245.41;5074519;28;20449;-67
2023/04/09 10:24:37;;;;;;;28.30;13.50;;;;;;;9.99;86.49;102250.88;5071972;28;20460;-67
2023/04/09 10:27:11;;;;;;;30.60;13.20;;;;;;;10.21;86.66;102248.91;5071365;28;21016;-67
2023/04/09 10:29:43;;;;;;;27.93;12.17;;;;;;;10.37;85.01;102240.97;5077004;28;20561;-68
2023/04/09 10:32:10;;;;;;;34.30;11.83;;;;;;;10.48;84.94;102245.38;5070606;28;20452;-67
2023/04/09 10:34:39;;;;;;;30.47;13.40;;;;;;;10.51;84.51;102252.97;5073266;28;20453;-67
2023/04/09 10:37:08;;;;;;;28.40;12.13;;;;;;;10.09;84.91;102243.69;5061284;28;20453;-67
2023/04/09 10:39:39;;;;;;;21.97;11.17;;;;;;;10.07;86.07;102240.38;5069461;28;20538;-67
2023/04/09 10:42:13;;;;;;;35.27;12.13;;;;;;;10.34;85.88;102250.41;5072511;28;20459;-68
2023/04/09 10:44:41;;;;;;;29.17;13.03;;;;;;;10.56;84.77;102247.59;5071695;28;20548;-69
2023/04/09 10:47:09;;;;;;;24.67;11.57;;;;;;;10.66;84.06;102244.94;5073522;28;20495;-68
2023/04/09 10:49:37;;;;;;;29.90;11.20;;;;;;;10.88;84.03;102249.44;5070573;28;20485;-66
2023/04/09 10:52:05;;;;;;;25.77;10.83;;;;;;;10.83;83.12;102247.50;5065949;28;20457;-67
2023/04/09 10:54:45;;;;;;;30.07;11.07;;;;;;;10.75;83.56;102248.00;5075718;28;20461;-67
2023/04/09 10:57:23;;;;;;;24.77;10.67;;;;;;;10.83;82.48;102250.22;5074488;28;20487;-68
2023/04/09 10:59:52;;;;;;;23.10;10.50;;;;;;;10.66;82.16;102244.13;5079771;28;20472;-68
2023/04/09 11:03:09;;;;;;;29.50;11.17;;;;;;;10.98;82.55;102249.47;5073371;28;20465;-67
2023/04/09 11:05:37;;;;;;;22.23;9.73;;;;;;;11.19;81.32;102250.41;5013937;28;20505;-66
2023/04/09 11:08:07;;;;;;;24.73;10.13;;;;;;;11.23;79.43;102246.91;5012256;28;20495;-65
2023/04/09 11:10:33;;;;;;;27.63;9.27;;;;;;;11.22;80.00;102241.75;5044939;28;20475;-69
2023/04/09 11:13:02;;;;;;;21.40;9.30;;;;;;;11.54;79.91;102247.03;5070227;28;20538;-66
2023/04/09 11:15:29;;;;;;;27.73;10.73;;;;;;;11.95;79.73;102237.13;5066323;28;20547;-67
2023/04/09 11:17:57;;;;;;;21.10;10.10;;;;;;;12.41;77.22;102245.31;5084141;28;20449;-67